Time;durP1;ratioP1;P1;durP2;ratioP2;P2;SDS_P1;SDS_P2;PMS_P1;PMS_P2;Temp;Humidity;BMP_temperature;BMP_pressure;BME280_temperature;BME280_humidity;BME280_pressure;Samples;Min_cycle;Max_cycle;Signal;HPM_P1;HPM_P2
2023/09/30 00:00:26;;;;;;;0.88;0.40;;;22.80;54.90;;;;;;6374913;27;20047;-43
2023/09/30 00:03:28;;;;;;;0.85;0.38;;;23.00;55.10;;;;;;6384175;27;20130;-43
2023/09/30 00:06:30;;;;;;;0.82;0.55;;;22.90;55.10;;;;;;6371164;27;20051;-41
2023/09/30 00:09:32;;;;;;;1.23;0.70;;;23.10;55.20;;;;;;6387554;27;20053;-41
2023/09/30 00:12:34;;;;;;;0.77;0.45;;;22.70;55.00;;;;;;6387594;27;20706;-41
2023/09/30 00:15:38;;;;;;;0.57;0.50;;;23.20;55.40;;;;;;6388581;27;20527;-41
2023/09/30 00:18:43;;;;;;;0.63;0.50;;;22.80;55.20;;;;;;6363891;27;20043;-41
2023/09/30 00:21:44;;;;;;;1.00;0.60;;;22.40;54.80;;;;;;6367998;27;20041;-41
2023/09/30 00:24:46;;;;;;;1.15;0.50;;;22.60;55.10;;;;;;6390017;27;20145;-41
2023/09/30 00:27:48;;;;;;;0.60;0.40;;;22.70;55.30;;;;;;6379542;27;20055;-42
2023/09/30 00:30:50;;;;;;;1.55;0.70;;;22.50;55.00;;;;;;6389782;27;20034;-43
2023/09/30 00:33:57;;;;;;;0.98;0.40;;;22.60;55.20;;;;;;6379248;27;20051;-42
2023/09/30 00:36:59;;;;;;;0.70;0.40;;;22.40;54.90;;;;;;6376340;27;20054;-41
2023/09/30 00:40:01;;;;;;;0.77;0.50;;;22.80;55.40;;;;;;6381640;27;20047;-41
2023/09/30 00:43:03;;;;;;;0.70;0.45;;;22.70;55.40;;;;;;6382909;27;20092;-41
2023/09/30 00:46:18;;;;;;;0.85;0.43;;;22.70;55.30;;;;;;6353236;28;20046;-43
2023/09/30 00:49:21;;;;;;;0.82;0.40;;;22.60;55.20;;;;;;6361459;27;20047;-41
2023/09/30 00:52:29;;;;;;;0.65;0.32;;;22.60;55.90;;;;;;6368852;27;20622;-41
2023/09/30 00:55:31;;;;;;;1.00;0.50;;;22.70;55.40;;;;;;6383752;27;20045;-41
2023/09/30 00:58:34;;;;;;;1.35;0.50;;;22.80;55.40;;;;;;6385806;27;20116;-42
2023/09/30 01:01:36;;;;;;;0.65;0.45;;;22.70;55.30;;;;;;6366550;27;20496;-41
2023/09/30 01:04:39;;;;;;;1.67;0.50;;;22.60;55.50;;;;;;6375239;27;20138;-41
2023/09/30 01:07:43;;;;;;;0.70;0.45;;;22.60;55.30;;;;;;6379873;27;20077;-40
2023/09/30 01:10:48;;;;;;;0.93;0.40;;;22.70;55.40;;;;;;6387650;27;20619;-40
2023/09/30 01:13:49;;;;;;;1.00;0.60;;;22.50;55.20;;;;;;6388430;27;20042;-42
2023/09/30 01:16:51;;;;;;;0.73;0.43;;;22.40;55.50;;;;;;6389479;27;20047;-41
2023/09/30 01:19:53;;;;;;;0.95;0.60;;;22.60;55.30;;;;;;6387872;27;20050;-42
2023/09/30 01:22:56;;;;;;;0.75;0.35;;;22.80;55.60;;;;;;6386445;27;20054;-40
2023/09/30 01:26:03;;;;;;;0.47;0.30;;;22.70;55.40;;;;;;6380897;27;20034;-42
2023/09/30 01:29:10;;;;;;;0.68;0.40;;;22.60;55.40;;;;;;6383403;27;20038;-41
2023/09/30 01:32:13;;;;;;;0.75;0.40;;;22.90;55.70;;;;;;6385369;27;20051;-41
2023/09/30 01:35:15;;;;;;;0.85;0.43;;;22.50;55.60;;;;;;6383902;27;20447;-42
2023/09/30 01:38:17;;;;;;;0.40;0.30;;;22.70;55.60;;;;;;6367330;27;20050;-43
2023/09/30 01:41:19;;;;;;;0.60;0.30;;;22.30;55.40;;;;;;6386763;27;20042;-41
2023/09/30 01:44:20;;;;;;;0.52;0.43;;;22.60;55.60;;;;;;6386589;27;20560;-44
2023/09/30 01:47:22;;;;;;;0.50;0.40;;;22.60;55.70;;;;;;6386168;27;20104;-42
2023/09/30 01:50:23;;;;;;;0.57;0.40;;;22.60;55.70;;;;;;6386594;27;20453;-41
2023/09/30 01:53:25;;;;;;;1.08;0.40;;;22.50;55.70;;;;;;6386306;27;20383;-40
2023/09/30 01:56:27;;;;;;;0.85;0.43;;;22.60;55.60;;;;;;6386513;27;20058;-41
2023/09/30 01:59:29;;;;;;;0.65;0.32;;;22.20;55.50;;;;;;6384553;27;20046;-42
2023/09/30 02:02:30;;;;;;;0.73;0.50;;;22.50;55.70;;;;;;6383595;27;20046;-41
2023/09/30 02:05:32;;;;;;;0.63;0.40;;;22.50;55.70;;;;;;6381723;27;20420;-41
2023/09/30 02:08:36;;;;;;;0.63;0.30;;;22.60;55.80;;;;;;6382451;27;20046;-43
2023/09/30 02:11:41;;;;;;;0.52;0.30;;;22.50;55.60;;;;;;6385011;27;20075;-42
2023/09/30 02:14:42;;;;;;;0.30;0.30;;;22.60;55.80;;;;;;6385720;27;20047;-41
2023/09/30 02:17:45;;;;;;;0.68;0.40;;;22.70;56.00;;;;;;6384656;27;20051;-42
2023/09/30 02:20:50;;;;;;;0.90;0.30;;;22.50;55.80;;;;;;6384478;27;20042;-44
2023/09/30 02:23:54;;;;;;;1.30;0.40;;;22.10;55.60;;;;;;6385625;27;20616;-41
2023/09/30 02:26:57;;;;;;;0.85;0.40;;;22.60;56.00;;;;;;6385843;27;20047;-40
2023/09/30 02:29:58;;;;;;;0.52;0.47;;;22.30;55.90;;;;;;6385479;27;20427;-40
2023/09/30 02:33:00;;;;;;;0.55;0.28;;;22.40;56.10;;;;;;6385913;27;20095;-41
2023/09/30 02:36:05;;;;;;;0.60;0.40;;;22.50;56.10;;;;;;6387168;27;20133;-40
2023/09/30 02:39:08;;;;;;;0.30;0.22;;;22.50;56.10;;;;;;6372310;27;20507;-43
2023/09/30 02:42:10;;;;;;;1.00;0.50;;;22.50;55.90;;;;;;6390239;27;20492;-40
2023/09/30 02:45:17;;;;;;;0.40;0.20;;;22.40;56.00;;;;;;6390457;27;20046;-40
2023/09/30 02:48:21;;;;;;;0.43;0.30;;;22.40;56.10;;;;;;6389006;27;20594;-42
2023/09/30 02:51:25;;;;;;;0.70;0.40;;;22.30;56.00;;;;;;6388246;27;20050;-40
2023/09/30 02:54:30;;;;;;;0.47;0.30;;;22.50;56.30;;;;;;6389829;27;20129;-41
2023/09/30 02:57:35;;;;;;;0.77;0.30;;;22.40;56.00;;;;;;6389642;27;20506;-43
2023/09/30 03:00:37;;;;;;;0.93;0.50;;;22.20;54.40;;;;;;6371325;27;20408;-40
2023/09/30 03:03:39;;;;;;;0.65;0.40;;;22.70;56.30;;;;;;6371476;27;20047;-42
2023/09/30 03:06:42;;;;;;;0.40;0.40;;;22.40;56.30;;;;;;6389305;27;20458;-41
2023/09/30 03:09:44;;;;;;;0.77;0.47;;;22.40;56.30;;;;;;6389839;27;20047;-40
2023/09/30 03:12:47;;;;;;;0.85;0.40;;;22.40;56.30;;;;;;6389156;27;20046;-41
2023/09/30 03:15:49;;;;;;;0.40;0.40;;;22.50;56.30;;;;;;6388560;27;20527;-41
2023/09/30 03:18:51;;;;;;;0.90;0.40;;;22.10;56.10;;;;;;6388961;27;20526;-42
2023/09/30 03:21:53;;;;;;;0.60;0.30;;;22.40;56.40;;;;;;6389440;27;20487;-40
2023/09/30 03:25:00;;;;;;;0.40;0.30;;;22.10;56.30;;;;;;6387665;27;20043;-42
2023/09/30 03:28:06;;;;;;;0.40;0.30;;;22.30;56.30;;;;;;6388650;27;20515;-41
2023/09/30 03:31:07;;;;;;;0.88;0.30;;;22.40;54.80;;;;;;6388672;27;20095;-40
2023/09/30 03:34:11;;;;;;;0.57;0.38;;;22.80;56.60;;;;;;6391579;27;20480;-41
2023/09/30 03:37:13;;;;;;;0.38;0.25;;;22.50;56.50;;;;;;6391642;27;20051;-40
2023/09/30 03:40:18;;;;;;;0.65;0.40;;;22.40;56.50;;;;;;6391335;27;20070;-40
2023/09/30 03:43:21;;;;;;;0.47;0.25;;;22.30;56.30;;;;;;6390422;27;20053;-42
2023/09/30 03:46:25;;;;;;;0.70;0.50;;;22.40;56.50;;;;;;6390612;27;20450;-41
2023/09/30 03:49:28;;;;;;;0.65;0.35;;;22.30;56.50;;;;;;6388517;27;20122;-42
2023/09/30 03:52:32;;;;;;;0.90;0.43;;;22.30;56.40;;;;;;6372133;27;20057;-40
2023/09/30 03:55:34;;;;;;;0.63;0.40;;;22.20;56.50;;;;;;6391362;27;20043;-40
2023/09/30 03:58:38;;;;;;;0.38;0.25;;;22.30;56.50;;;;;;6390846;27;20046;-40
2023/09/30 04:01:40;;;;;;;0.75;0.40;;;22.30;56.60;;;;;;6390537;27;20420;-42
2023/09/30 04:04:41;;;;;;;0.77;0.60;;;22.10;56.40;;;;;;6391254;27;20129;-40
2023/09/30 04:07:43;;;;;;;0.73;0.30;;;22.30;56.60;;;;;;6391008;27;20088;-41
2023/09/30 04:10:47;;;;;;;0.73;0.30;;;22.30;56.50;;;;;;6390868;27;20129;-41
2023/09/30 04:13:50;;;;;;;0.82;0.43;;;22.10;56.30;;;;;;6390575;27;20046;-41
2023/09/30 04:16:54;;;;;;;0.90;0.50;;;22.30;56.60;;;;;;6390533;27;20532;-43
2023/09/30 04:19:59;;;;;;;0.90;0.50;;;22.20;56.60;;;;;;6390674;27;20122;-43
2023/09/30 04:23:02;;;;;;;0.63;0.40;;;22.00;56.30;;;;;;6388328;27;20094;-40
2023/09/30 04:26:05;;;;;;;1.27;0.40;;;22.20;56.60;;;;;;6390644;27;20046;-42
2023/09/30 04:29:10;;;;;;;0.85;0.40;;;22.10;56.50;;;;;;6390399;27;20046;-41
2023/09/30 04:32:11;;;;;;;0.50;0.45;;;22.30;56.70;;;;;;6390605;27;20053;-41
2023/09/30 04:35:14;;;;;;;0.45;0.30;;;21.90;56.50;;;;;;6388180;27;20046;-40
2023/09/30 04:38:16;;;;;;;0.60;0.20;;;21.90;56.60;;;;;;6391458;27;20066;-43
2023/09/30 04:41:18;;;;;;;0.68;0.40;;;22.00;56.70;;;;;;6390360;27;20539;-42
2023/09/30 04:44:23;;;;;;;0.68;0.30;;;22.20;56.80;;;;;;6390737;27;20045;-41
2023/09/30 04:47:25;;;;;;;0.40;0.40;;;22.30;56.80;;;;;;6391707;27;20047;-43
2023/09/30 04:50:26;;;;;;;0.43;0.30;;;22.20;56.70;;;;;;6391280;27;20046;-41
2023/09/30 04:53:29;;;;;;;;;;;22.00;56.80;;;;;;6391979;27;20091;-41
2023/09/30 04:56:31;;;;;;;0.98;0.50;;;22.20;57.20;;;;;;6391166;27;19950;-41
2023/09/30 04:59:32;;;;;;;0.80;0.32;;;22.00;56.70;;;;;;6391214;27;20644;-42
2023/09/30 05:02:34;;;;;;;1.05;0.43;;;22.00;57.20;;;;;;6390094;27;20155;-40
2023/09/30 05:05:35;;;;;;;;;;;22.10;56.90;;;;;;6390162;27;20508;-40
2023/09/30 05:08:37;;;;;;;0.70;0.40;;;22.50;57.50;;;;;;6389698;27;19923;-42
2023/09/30 05:11:49;;;;;;;0.45;0.38;;;22.00;57.00;;;;;;6388264;27;20549;-40
2023/09/30 05:14:52;;;;;;;0.30;0.30;;;22.10;57.00;;;;;;6389662;27;20042;-40
2023/09/30 05:17:53;;;;;;;0.75;0.32;;;22.00;57.00;;;;;;6389977;27;20100;-42
2023/09/30 05:20:55;;;;;;;;;;;22.20;57.20;;;;;;6390330;27;20046;-44
2023/09/30 05:23:58;;;;;;;;;;;22.30;57.00;;;;;;6390442;27;19923;-43
2023/09/30 05:27:01;;;;;;;0.40;0.20;;;22.20;57.40;;;;;;6389700;27;20316;-42
2023/09/30 05:30:04;;;;;;;0.40;0.22;;;22.10;57.20;;;;;;6371124;27;20058;-41
2023/09/30 05:33:14;;;;;;;0.90;0.55;;;22.20;57.20;;;;;;6389584;27;20066;-41
2023/09/30 05:36:20;;;;;;;0.90;0.60;;;22.00;57.80;;;;;;6389460;27;20051;-40
2023/09/30 05:39:21;;;;;;;0.45;0.40;;;22.10;57.20;;;;;;6389336;27;20122;-41
2023/09/30 05:42:26;;;;;;;0.63;0.50;;;21.70;57.20;;;;;;6388623;27;20117;-41
2023/09/30 05:45:33;;;;;;;0.40;0.30;;;22.10;57.30;;;;;;6389317;27;20085;-41
2023/09/30 05:48:35;;;;;;;0.73;0.30;;;22.20;57.30;;;;;;6389250;27;20055;-41
2023/09/30 05:51:40;;;;;;;0.40;0.30;;;21.80;57.20;;;;;;6388736;27;20042;-40
2023/09/30 05:54:42;;;;;;;0.57;0.30;;;22.00;57.20;;;;;;6386642;27;20183;-42
2023/09/30 05:57:45;;;;;;;0.28;0.20;;;22.00;57.30;;;;;;6388890;27;20383;-42
2023/09/30 06:00:46;;;;;;;0.52;0.30;;;21.80;57.20;;;;;;6387677;27;20133;-41
2023/09/30 06:03:48;;;;;;;0.63;0.43;;;22.10;57.40;;;;;;6389080;27;20105;-43
2023/09/30 06:06:50;;;;;;;0.57;0.30;;;22.00;57.40;;;;;;6389098;27;20046;-40
2023/09/30 06:09:53;;;;;;;0.77;0.40;;;22.00;57.30;;;;;;6388291;27;20047;-40
2023/09/30 06:12:58;;;;;;;1.00;0.40;;;21.80;57.20;;;;;;6388680;27;20160;-38
2023/09/30 06:15:59;;;;;;;0.35;0.30;;;22.00;57.10;;;;;;6354852;27;20035;-42
2023/09/30 06:19:02;;;;;;;0.40;0.28;;;21.70;57.20;;;;;;6387487;27;20591;-40
2023/09/30 06:22:04;;;;;;;0.60;0.50;;;21.60;57.20;;;;;;6387949;27;20082;-42
2023/09/30 06:25:07;;;;;;;0.50;0.38;;;21.80;57.30;;;;;;6387969;27;20511;-42
2023/09/30 06:28:09;;;;;;;0.60;0.50;;;22.00;57.30;;;;;;6388127;27;20100;-42
2023/09/30 06:31:11;;;;;;;1.25;0.30;;;22.10;57.40;;;;;;6388295;27;20523;-40
2023/09/30 06:34:13;;;;;;;0.70;0.30;;;22.00;57.30;;;;;;6370421;27;20499;-41
2023/09/30 06:37:17;;;;;;;0.98;0.40;;;21.50;57.20;;;;;;6388575;27;20542;-40
2023/09/30 06:40:19;;;;;;;0.90;0.52;;;21.70;57.20;;;;;;6387953;27;20058;-40
2023/09/30 06:43:21;;;;;;;0.32;0.30;;;21.70;57.30;;;;;;6388130;27;20038;-40
2023/09/30 06:46:24;;;;;;;0.80;0.43;;;22.10;57.50;;;;;;6388431;27;20545;-42
2023/09/30 06:49:25;;;;;;;0.52;0.40;;;21.90;57.50;;;;;;6388108;27;20046;-41
2023/09/30 06:52:27;;;;;;;0.73;0.40;;;21.90;57.40;;;;;;6386878;27;20039;-41
2023/09/30 06:55:31;;;;;;;0.47;0.30;;;21.90;57.40;;;;;;6379241;27;20202;-40
2023/09/30 06:58:33;;;;;;;0.98;0.50;;;22.00;57.40;;;;;;6372608;27;20443;-43
2023/09/30 07:01:35;;;;;;;0.40;0.30;;;21.70;57.20;;;;;;6366327;27;20047;-41
2023/09/30 07:04:37;;;;;;;0.88;0.40;;;22.10;57.50;;;;;;6362679;28;20043;-41
2023/09/30 07:07:39;;;;;;;0.75;0.40;;;22.90;58.00;;;;;;6358721;27;20035;-40
2023/09/30 07:10:41;;;;;;;0.75;0.50;;;22.40;57.60;;;;;;6341654;28;20100;-41
2023/09/30 07:13:46;;;;;;;0.73;0.30;;;22.00;57.50;;;;;;6361748;28;20062;-41
2023/09/30 07:16:49;;;;;;;0.40;0.25;;;22.00;55.50;;;;;;6358008;28;20318;-40
2023/09/30 07:19:51;;;;;;;0.80;0.40;;;22.00;57.50;;;;;;6361662;28;20137;-40
2023/09/30 07:22:52;;;;;;;;;;;21.90;57.50;;;;;;6363421;27;20527;-40
2023/09/30 07:26:12;;;;;;;0.70;0.40;;;22.20;57.90;;;;;;6366414;28;19927;-40
2023/09/30 07:29:18;;;;;;;0.85;0.40;;;21.90;57.60;;;;;;6366108;28;20129;-41
2023/09/30 07:32:22;;;;;;;0.38;0.30;;;21.90;57.40;;;;;;6366105;28;20516;-40
2023/09/30 07:35:24;;;;;;;0.40;0.30;;;21.60;57.40;;;;;;6366268;28;20051;-40
2023/09/30 07:38:25;;;;;;;;;;;21.90;57.80;;;;;;6366032;28;20424;-41
2023/09/30 07:41:34;;;;;;;;;;;21.90;58.50;;;;;;6367320;28;20716;-40
2023/09/30 07:44:37;;;;;;;0.75;0.40;;;21.90;55.90;;;;;;6368643;27;19931;-40
2023/09/30 07:47:41;;;;;;;0.80;0.43;;;22.00;57.60;;;;;;6389203;27;20054;-43
2023/09/30 07:50:44;;;;;;;0.82;0.40;;;21.70;57.60;;;;;;6388965;27;20095;-40
2023/09/30 07:53:46;;;;;;;0.73;0.50;;;21.90;57.70;;;;;;6387908;27;20066;-41
2023/09/30 07:56:47;;;;;;;0.68;0.40;;;22.00;58.00;;;;;;6389334;27;20148;-42
2023/09/30 07:59:49;;;;;;;0.77;0.45;;;21.90;57.90;;;;;;6376965;27;20095;-40
2023/09/30 08:02:51;;;;;;;0.40;0.40;;;21.80;57.80;;;;;;6389711;27;20046;-40
2023/09/30 08:05:52;;;;;;;0.77;0.57;;;21.90;58.00;;;;;;6388975;27;20047;-40
2023/09/30 08:08:55;;;;;;;;;;;21.60;57.80;;;;;;6391015;27;20046;-41
2023/09/30 08:11:58;;;;;;;1.50;0.50;;;22.00;58.20;;;;;;6390707;27;20507;-40
2023/09/30 08:15:00;;;;;;;1.27;0.50;;;21.80;58.00;;;;;;6391286;27;20046;-40
2023/09/30 08:18:04;;;;;;;0.55;0.45;;;21.70;57.90;;;;;;6390712;27;20515;-41
2023/09/30 08:21:10;;;;;;;0.57;0.40;;;21.90;57.90;;;;;;6390957;27;20179;-41
2023/09/30 08:24:11;;;;;;;1.10;0.60;;;21.90;57.90;;;;;;6390814;27;20062;-40
2023/09/30 08:27:13;;;;;;;0.98;0.50;;;22.10;58.10;;;;;;6391083;27;20324;-41
2023/09/30 08:30:16;;;;;;;0.55;0.47;;;21.70;57.60;;;;;;6390770;27;20047;-41
2023/09/30 08:33:22;;;;;;;0.90;0.50;;;21.90;58.10;;;;;;6390123;27;20043;-43
2023/09/30 08:36:24;;;;;;;0.63;0.40;;;21.80;58.00;;;;;;6390224;27;20057;-41
2023/09/30 08:39:28;;;;;;;0.80;0.70;;;22.00;58.10;;;;;;6390118;27;20067;-41
2023/09/30 08:42:33;;;;;;;1.33;0.75;;;22.00;58.00;;;;;;6389790;27;20115;-43
2023/09/30 08:45:43;;;;;;;0.93;0.50;;;21.70;58.00;;;;;;6390555;27;20412;-40
2023/09/30 08:48:46;;;;;;;1.20;0.60;;;22.00;58.10;;;;;;6389771;27;20664;-40
2023/09/30 08:51:50;;;;;;;0.75;0.50;;;22.10;58.10;;;;;;6386749;27;20054;-40
2023/09/30 08:54:52;;;;;;;1.00;0.70;;;22.10;58.10;;;;;;6401993;27;20090;-41
2023/09/30 08:57:56;;;;;;;0.70;0.50;;;22.10;58.30;;;;;;6412095;27;20133;-41
2023/09/30 09:01:01;;;;;;;1.10;0.52;;;22.10;58.00;;;;;;6412501;27;20507;-43
2023/09/30 09:04:03;;;;;;;0.98;0.65;;;22.20;58.20;;;;;;6413214;27;20428;-40
2023/09/30 09:07:05;;;;;;;1.08;0.68;;;22.10;57.70;;;;;;6413238;27;20089;-40
2023/09/30 09:10:10;;;;;;;1.10;0.70;;;22.10;58.10;;;;;;6413384;27;20134;-42
2023/09/30 09:13:14;;;;;;;1.15;0.50;;;22.10;58.00;;;;;;6394658;27;20042;-40
2023/09/30 09:16:18;;;;;;;0.82;0.68;;;21.90;57.90;;;;;;6413679;27;20041;-42
2023/09/30 09:19:21;;;;;;;0.90;0.60;;;22.20;58.00;;;;;;6412864;27;20046;-39
2023/09/30 09:22:38;;;;;;;0.65;0.40;;;22.10;58.00;;;;;;6415425;27;20058;-43
2023/09/30 09:25:40;;;;;;;1.00;0.60;;;22.20;58.00;;;;;;6415573;27;20153;-40
2023/09/30 09:28:42;;;;;;;1.17;0.80;;;21.90;57.90;;;;;;6415134;27;20042;-41
2023/09/30 09:31:46;;;;;;;1.95;0.77;;;22.40;58.10;;;;;;6414562;27;20066;-41
2023/09/30 09:35:01;;;;;;;1.00;0.70;;;22.20;57.90;;;;;;6415066;27;20091;-41
2023/09/30 09:38:04;;;;;;;1.27;0.68;;;22.30;57.90;;;;;;6377430;27;20053;-40
2023/09/30 09:41:08;;;;;;;0.70;0.60;;;22.80;58.00;;;;;;6396938;27;20125;-40
2023/09/30 09:44:10;;;;;;;1.42;0.80;;;22.40;57.90;;;;;;6414174;27;20115;-40
2023/09/30 09:47:17;;;;;;;1.30;0.70;;;22.20;57.80;;;;;;6412982;27;20050;-40
2023/09/30 09:50:19;;;;;;;1.50;0.80;;;22.40;57.70;;;;;;6412655;27;20504;-40
2023/09/30 09:53:23;;;;;;;1.67;0.73;;;22.10;57.60;;;;;;6395404;27;20035;-40
2023/09/30 09:56:25;;;;;;;1.63;0.85;;;22.40;57.80;;;;;;6414773;27;20050;-40
2023/09/30 09:59:27;;;;;;;1.05;0.60;;;22.40;57.80;;;;;;6412228;27;20205;-43
2023/09/30 10:02:30;;;;;;;1.23;0.85;;;22.40;57.80;;;;;;6412578;27;20046;-41
2023/09/30 10:05:33;;;;;;;1.10;0.60;;;22.40;57.80;;;;;;6371781;27;20055;-41
2023/09/30 10:08:39;;;;;;;1.75;0.95;;;22.30;57.80;;;;;;6361392;28;20078;-40
2023/09/30 10:11:41;;;;;;;1.52;0.85;;;22.30;57.70;;;;;;6343591;28;20050;-40
2023/09/30 10:14:44;;;;;;;1.13;0.80;;;22.50;57.90;;;;;;6324779;28;20043;-40
2023/09/30 10:17:58;;;;;;;1.40;0.82;;;22.10;57.80;;;;;;6362984;28;20043;-41
2023/09/30 10:21:09;;;;;;;1.55;0.80;;;22.40;58.00;;;;;;6362575;28;20043;-40
2023/09/30 10:24:28;;;;;;;1.55;0.80;;;22.40;57.90;;;;;;6362698;28;20607;-40
2023/09/30 10:27:32;;;;;;;1.40;0.70;;;22.50;57.90;;;;;;6344733;28;20508;-41
2023/09/30 10:30:35;;;;;;;1.02;0.63;;;22.70;58.00;;;;;;6362782;27;20120;-40
2023/09/30 10:33:55;;;;;;;1.33;0.65;;;22.10;57.90;;;;;;6359442;28;20058;-40
2023/09/30 10:36:57;;;;;;;1.42;0.80;;;22.40;57.90;;;;;;6341364;27;20043;-41
2023/09/30 10:39:59;;;;;;;0.98;0.60;;;22.40;58.10;;;;;;6359426;28;20047;-40
2023/09/30 10:43:02;;;;;;;1.27;0.50;;;22.50;58.00;;;;;;6341125;28;20050;-41
2023/09/30 10:46:06;;;;;;;1.17;0.70;;;22.50;58.20;;;;;;6359567;28;20054;-41
2023/09/30 10:49:31;;;;;;;1.63;0.93;;;22.50;58.10;;;;;;6358827;28;20138;-40
2023/09/30 10:52:33;;;;;;;0.98;0.60;;;22.70;58.20;;;;;;6359333;28;20047;-40
2023/09/30 10:55:35;;;;;;;1.50;0.88;;;22.40;58.00;;;;;;6359309;28;20100;-41
2023/09/30 10:58:41;;;;;;;1.20;0.73;;;22.50;58.20;;;;;;6361324;27;20047;-40
2023/09/30 11:01:43;;;;;;;0.70;0.50;;;22.30;58.10;;;;;;6361548;28;20047;-40
2023/09/30 11:04:47;;;;;;;1.20;0.75;;;22.60;58.40;;;;;;6363501;28;20043;-41
2023/09/30 11:07:50;;;;;;;1.15;0.60;;;22.50;58.40;;;;;;6362221;28;20043;-40
2023/09/30 11:10:53;;;;;;;1.25;0.70;;;22.50;58.40;;;;;;6363218;28;20467;-40
2023/09/30 11:13:54;;;;;;;1.52;0.60;;;22.60;58.50;;;;;;6344749;28;20150;-41
2023/09/30 11:16:57;;;;;;;0.95;0.60;;;22.50;58.50;;;;;;6362863;28;20424;-41
2023/09/30 11:20:00;;;;;;;1.00;0.65;;;22.30;58.30;;;;;;6363259;28;20157;-40
2023/09/30 11:23:02;;;;;;;0.95;0.68;;;22.70;58.60;;;;;;6363048;28;20067;-40
2023/09/30 11:26:04;;;;;;;1.33;0.80;;;22.40;58.40;;;;;;6362984;28;20424;-40
2023/09/30 11:29:07;;;;;;;0.90;0.40;;;22.80;58.60;;;;;;6362793;28;20043;-40
2023/09/30 11:32:08;;;;;;;2.08;0.80;;;23.00;58.60;;;;;;6362702;28;20058;-40
2023/09/30 11:35:22;;;;;;;1.35;0.63;;;22.70;58.60;;;;;;6361982;28;20158;-40
2023/09/30 11:38:24;;;;;;;1.17;0.60;;;22.90;58.60;;;;;;6343558;28;20051;-40
2023/09/30 11:41:33;;;;;;;1.20;0.70;;;22.70;58.70;;;;;;6362433;28;20042;-42
2023/09/30 11:44:47;;;;;;;1.00;0.70;;;22.70;58.50;;;;;;6362777;28;20043;-42
2023/09/30 11:47:48;;;;;;;1.38;0.80;;;22.70;58.70;;;;;;6344477;28;20039;-40
2023/09/30 11:50:55;;;;;;;1.42;0.88;;;22.80;58.60;;;;;;6362004;28;20055;-40
2023/09/30 11:53:57;;;;;;;1.95;0.90;;;22.80;58.40;;;;;;6362471;28;20137;-40
2023/09/30 11:56:59;;;;;;;1.42;1.00;;;22.90;58.60;;;;;;6343759;28;20086;-42
2023/09/30 12:00:12;;;;;;;1.10;0.77;;;22.80;58.50;;;;;;6362017;28;20050;-41
2023/09/30 12:03:14;;;;;;;1.40;0.88;;;23.00;58.60;;;;;;6361927;28;20050;-40
2023/09/30 12:06:19;;;;;;;1.15;0.68;;;22.80;58.70;;;;;;6361878;28;20593;-40
2023/09/30 12:09:22;;;;;;;2.00;1.05;;;22.70;58.50;;;;;;6360823;27;20054;-40
2023/09/30 12:12:24;;;;;;;1.45;0.90;;;22.90;58.60;;;;;;6361700;28;20545;-40
2023/09/30 12:15:26;;;;;;;1.98;1.00;;;23.00;58.70;;;;;;6361845;28;20088;-41
2023/09/30 12:18:28;;;;;;;1.52;0.80;;;22.60;58.40;;;;;;6361826;28;20047;-41
2023/09/30 12:21:30;;;;;;;1.42;0.90;;;22.90;58.60;;;;;;6360979;28;20043;-40
2023/09/30 12:24:32;;;;;;;1.52;0.95;;;22.90;58.50;;;;;;6361639;28;20043;-40
2023/09/30 12:27:34;;;;;;;1.42;0.90;;;22.90;58.50;;;;;;6361521;28;20043;-41
2023/09/30 12:30:35;;;;;;;1.60;0.90;;;22.70;58.30;;;;;;6361780;28;20162;-40
2023/09/30 12:33:37;;;;;;;2.10;1.13;;;23.00;58.60;;;;;;6361167;28;20050;-40
2023/09/30 12:36:39;;;;;;;1.75;0.85;;;23.10;58.60;;;;;;6361645;28;20050;-41
2023/09/30 12:39:41;;;;;;;1.10;0.70;;;23.00;58.50;;;;;;6361260;28;20039;-42
2023/09/30 12:42:43;;;;;;;1.80;1.00;;;22.90;58.40;;;;;;6361364;28;20658;-40
2023/09/30 12:45:45;;;;;;;1.80;1.17;;;22.80;58.30;;;;;;6360722;28;20027;-41
2023/09/30 12:48:48;;;;;;;1.60;0.80;;;23.00;58.40;;;;;;6360783;28;20157;-40
2023/09/30 12:51:53;;;;;;;1.88;1.10;;;23.10;58.30;;;;;;6360497;28;20060;-40
2023/09/30 12:54:55;;;;;;;1.45;0.90;;;23.20;58.40;;;;;;6360220;28;20055;-40
2023/09/30 12:57:59;;;;;;;1.85;1.10;;;23.00;58.20;;;;;;6359058;28;20456;-40
2023/09/30 13:01:02;;;;;;;1.65;0.90;;;23.10;58.10;;;;;;6360060;28;20043;-41
2023/09/30 13:04:27;;;;;;;1.70;1.13;;;22.90;58.10;;;;;;6359201;28;20043;-40
2023/09/30 13:07:29;;;;;;;1.85;1.00;;;23.00;58.00;;;;;;6357546;28;20508;-42
2023/09/30 13:10:34;;;;;;;1.90;1.05;;;23.20;58.10;;;;;;6360263;28;20039;-41
2023/09/30 13:13:36;;;;;;;2.78;1.38;;;23.30;57.60;;;;;;6359903;28;20078;-42
2023/09/30 13:16:39;;;;;;;2.30;1.23;;;23.20;58.00;;;;;;6360512;28;20043;-40
2023/09/30 13:19:41;;;;;;;1.70;1.08;;;23.20;57.10;;;;;;6359675;27;20570;-40
2023/09/30 13:22:45;;;;;;;2.28;1.02;;;23.30;58.00;;;;;;6359322;28;20055;-40
2023/09/30 13:25:47;;;;;;;1.88;1.08;;;23.20;57.90;;;;;;6342460;27;20587;-40
2023/09/30 13:28:49;;;;;;;1.90;1.30;;;22.80;57.70;;;;;;6360536;28;20058;-40
2023/09/30 13:31:53;;;;;;;1.65;1.10;;;23.20;57.90;;;;;;6360247;28;20043;-41
2023/09/30 13:34:55;;;;;;;1.92;1.15;;;23.00;57.70;;;;;;6360013;28;20096;-41
2023/09/30 13:38:01;;;;;;;1.40;0.73;;;23.20;57.80;;;;;;6360321;28;20047;-41
2023/09/30 13:41:03;;;;;;;1.83;1.10;;;23.00;57.70;;;;;;6359575;28;20047;-42
2023/09/30 13:44:11;;;;;;;1.33;0.80;;;23.40;57.80;;;;;;6359989;28;20066;-40
2023/09/30 13:47:13;;;;;;;2.00;1.23;;;23.50;57.00;;;;;;6360334;28;20515;-40
2023/09/30 13:50:15;;;;;;;2.10;1.00;;;23.20;57.70;;;;;;6369190;27;20107;-41
2023/09/30 13:53:18;;;;;;;1.45;1.17;;;23.40;57.70;;;;;;6360027;28;20133;-41
2023/09/30 13:56:20;;;;;;;1.50;1.10;;;23.50;57.70;;;;;;6360230;27;20055;-41
2023/09/30 13:59:21;;;;;;;1.88;1.10;;;23.50;57.70;;;;;;6359029;28;20562;-41
2023/09/30 14:02:23;;;;;;;1.48;0.98;;;23.10;57.40;;;;;;6359107;28;20512;-40
2023/09/30 14:05:24;;;;;;;2.15;1.27;;;23.30;57.60;;;;;;6359660;28;20050;-41
2023/09/30 14:08:30;;;;;;;1.38;0.95;;;23.50;57.60;;;;;;6357991;28;20047;-40
2023/09/30 14:11:32;;;;;;;1.85;1.33;;;23.20;57.40;;;;;;6357921;28;20420;-40
2023/09/30 14:14:35;;;;;;;2.35;1.35;;;23.20;56.90;;;;;;6358943;28;20089;-41
2023/09/30 14:17:37;;;;;;;2.17;1.13;;;23.40;56.70;;;;;;6341433;28;20047;-41
2023/09/30 14:20:38;;;;;;;2.20;1.30;;;23.30;57.30;;;;;;6340608;28;20047;-41
2023/09/30 14:23:40;;;;;;;2.47;1.38;;;23.50;57.50;;;;;;6358361;28;20043;-43
2023/09/30 14:26:43;;;;;;;2.78;1.40;;;23.60;57.40;;;;;;6359203;28;20050;-40
2023/09/30 14:29:45;;;;;;;2.25;1.35;;;23.50;57.40;;;;;;6358956;28;20066;-41
2023/09/30 14:32:47;;;;;;;2.67;1.42;;;23.60;57.40;;;;;;6361258;27;20588;-40
2023/09/30 14:35:48;;;;;;;2.13;1.35;;;23.90;57.70;;;;;;6363996;28;20091;-41
2023/09/30 14:38:52;;;;;;;2.05;1.30;;;23.50;57.40;;;;;;6362850;27;20047;-40
2023/09/30 14:42:13;;;;;;;1.90;1.10;;;23.60;57.30;;;;;;6363720;27;20555;-43
2023/09/30 14:45:22;;;;;;;1.92;1.40;;;23.80;57.50;;;;;;6363738;28;20189;-42
2023/09/30 14:48:24;;;;;;;1.95;1.25;;;23.60;57.30;;;;;;6362768;28;20043;-40
2023/09/30 14:51:25;;;;;;;2.22;1.30;;;23.60;57.40;;;;;;6363519;28;20051;-42
2023/09/30 14:54:28;;;;;;;2.60;1.30;;;23.70;57.40;;;;;;6363878;27;20096;-42
2023/09/30 14:57:30;;;;;;;1.98;1.30;;;23.60;57.20;;;;;;6363498;28;20043;-40
2023/09/30 15:00:34;;;;;;;1.95;1.33;;;23.70;57.40;;;;;;6362769;28;20692;-43
2023/09/30 15:03:37;;;;;;;2.38;1.42;;;23.70;56.80;;;;;;6361902;28;20043;-42
2023/09/30 15:06:39;;;;;;;2.03;1.35;;;23.70;57.30;;;;;;6360476;28;20039;-40
2023/09/30 15:09:42;;;;;;;1.85;1.30;;;24.20;57.50;;;;;;6363105;28;20081;-41
2023/09/30 15:12:47;;;;;;;1.95;1.23;;;23.60;57.20;;;;;;6363145;28;20067;-43
2023/09/30 15:15:48;;;;;;;2.60;1.60;;;23.80;57.20;;;;;;6363176;28;20539;-41
2023/09/30 15:18:52;;;;;;;1.90;1.48;;;23.80;57.20;;;;;;6363045;28;20059;-41
2023/09/30 15:21:57;;;;;;;1.85;1.10;;;23.50;57.00;;;;;;6363080;28;20122;-41
2023/09/30 15:24:59;;;;;;;1.42;0.95;;;23.80;57.20;;;;;;6363312;27;20046;-40
2023/09/30 15:28:01;;;;;;;2.20;1.08;;;23.60;57.00;;;;;;6362739;27;20043;-44
2023/09/30 15:31:04;;;;;;;1.70;1.20;;;23.90;57.10;;;;;;6363036;28;20524;-41
2023/09/30 15:34:05;;;;;;;3.10;1.70;;;23.80;57.10;;;;;;6363105;28;20558;-40
2023/09/30 15:37:07;;;;;;;2.25;1.40;;;23.90;57.10;;;;;;6362677;28;20049;-42
2023/09/30 15:40:09;;;;;;;1.88;1.13;;;23.80;57.10;;;;;;6362037;28;20047;-43
2023/09/30 15:43:12;;;;;;;1.67;1.27;;;23.90;57.10;;;;;;6361739;27;20130;-41
2023/09/30 15:46:14;;;;;;;1.83;1.00;;;23.90;57.20;;;;;;6362982;28;20063;-40
2023/09/30 15:49:16;;;;;;;1.48;0.90;;;24.00;57.10;;;;;;6362316;28;20069;-40
2023/09/30 15:52:17;;;;;;;2.28;1.25;;;23.90;57.10;;;;;;6361944;28;20516;-38
2023/09/30 15:55:20;;;;;;;2.97;1.55;;;24.00;57.20;;;;;;6360981;28;20378;-39